createdAt,value
2023-03-13T00:00:09.152Z,82.21
2023-03-13T00:01:31.588Z,81.31
2023-03-13T00:02:33.549Z,81.68
2023-03-13T00:03:35.389Z,82.21
2023-03-13T00:04:37.310Z,81.75
2023-03-13T00:05:39.233Z,81.56
2023-03-13T00:06:41.339Z,82.64
2023-03-13T00:07:43.416Z,82.34
2023-03-13T00:08:45.533Z,82.94
2023-03-13T00:09:47.507Z,81.95
2023-03-13T00:10:49.873Z,83.53
2023-03-13T00:11:52.130Z,84.02
2023-03-13T00:12:53.969Z,82.92
2023-03-13T00:13:57.152Z,84.10
2023-03-13T00:14:59.060Z,83.83
2023-03-13T00:16:11.707Z,83.17
2023-03-13T00:17:14.222Z,82.14
2023-03-13T00:18:16.017Z,82.55
2023-03-13T00:19:18.201Z,82.67
2023-03-13T00:20:19.966Z,85.97
2023-03-13T00:21:23.522Z,82.89
2023-03-13T00:22:25.377Z,83.18
2023-03-13T00:23:27.844Z,84.11
2023-03-13T00:24:29.677Z,83.08
2023-03-13T00:25:32.257Z,83.54
2023-03-13T00:26:34.198Z,83.68
2023-03-13T00:27:37.460Z,84.31
2023-03-13T00:28:40.454Z,84.11
2023-03-13T00:29:42.389Z,84.13
2023-03-13T00:30:44.089Z,84.50
2023-03-13T00:31:46.338Z,85.55
2023-03-13T00:32:48.950Z,84.48
2023-03-13T00:33:53.309Z,84.20
2023-03-13T00:34:55.285Z,83.64
2023-03-13T00:36:01.695Z,84.84
2023-03-13T00:37:03.468Z,83.30
2023-03-13T00:38:05.592Z,83.21
2023-03-13T00:39:07.758Z,83.39
2023-03-13T00:40:11.860Z,84.74
2023-03-13T00:41:16.782Z,85.26
2023-03-13T00:42:18.525Z,84.66
2023-03-13T00:43:20.312Z,85.64
2023-03-13T00:44:21.987Z,85.16
2023-03-13T00:45:23.714Z,84.78
2023-03-13T00:46:27.973Z,86.29
2023-03-13T00:47:29.771Z,84.91
2023-03-13T00:48:33.324Z,85.32
2023-03-13T00:49:35.185Z,84.80
2023-03-13T00:50:37.213Z,84.84
2023-03-13T00:51:39.110Z,86.20
2023-03-13T00:52:41.772Z,85.02
2023-03-13T00:53:44.091Z,85.24
2023-03-13T00:54:46.465Z,85.62
2023-03-13T00:55:58.538Z,85.62
2023-03-13T00:57:00.729Z,88.00
2023-03-13T00:58:02.570Z,85.42
2023-03-13T00:59:04.516Z,86.07
2023-03-13T01:00:07.377Z,85.24
2023-03-13T01:01:10.144Z,85.26
2023-03-13T01:02:12.624Z,85.02
2023-03-13T01:03:16.044Z,85.39
2023-03-13T01:04:17.939Z,87.98
2023-03-13T01:05:20.001Z,86.64
2023-03-13T01:06:24.754Z,86.92
2023-03-13T01:07:27.816Z,88.23
2023-03-13T01:08:31.704Z,88.60
2023-03-13T01:09:33.559Z,88.07
2023-03-13T01:10:36.047Z,88.52
2023-03-13T01:11:40.226Z,87.05
2023-03-13T01:12:42.387Z,86.58
2023-03-13T01:13:44.324Z,85.54
2023-03-13T01:14:46.174Z,87.11
2023-03-13T01:15:48.055Z,85.61
2023-03-13T01:16:50.725Z,86.65
2023-03-13T01:17:52.973Z,85.81
2023-03-13T01:18:57.269Z,85.67
2023-03-13T01:19:59.835Z,84.46
2023-03-13T01:21:02.324Z,84.43
2023-03-13T01:22:04.288Z,84.51
2023-03-13T01:23:06.708Z,83.99
2023-03-13T01:24:09.786Z,84.28
2023-03-13T01:25:11.551Z,84.61
2023-03-13T01:26:13.386Z,85.14
2023-03-13T01:27:15.241Z,88.35
2023-03-13T01:28:17.900Z,86.28
2023-03-13T01:29:19.693Z,86.00
2023-03-13T01:30:21.908Z,89.28
2023-03-13T01:31:25.849Z,86.63
2023-03-13T01:32:27.840Z,87.45
2023-03-13T01:33:32.785Z,87.04
2023-03-13T01:34:35.141Z,88.22
2023-03-13T01:35:36.920Z,86.83
2023-03-13T01:36:39.174Z,90.62
2023-03-13T01:37:41.332Z,87.70
2023-03-13T01:38:43.359Z,88.55
2023-03-13T01:39:47.152Z,88.15
2023-03-13T01:40:49.417Z,89.54
2023-03-13T01:41:51.267Z,88.33
2023-03-13T01:42:57.929Z,87.77
2023-03-13T01:43:59.807Z,89.70
2023-03-13T01:45:47.300Z,88.63
2023-03-13T01:46:49.432Z,89.05
2023-03-13T01:48:00.525Z,87.36
2023-03-13T01:49:22.134Z,87.31
2023-03-13T01:50:32.906Z,86.51
2023-03-13T01:51:54.625Z,86.43
2023-03-13T01:52:58.159Z,85.83
2023-03-13T01:54:14.183Z,85.39
2023-03-13T01:55:17.885Z,85.96
2023-03-13T01:56:27.856Z,85.19
2023-03-13T01:57:32.017Z,88.95
2023-03-13T01:58:34.169Z,85.74
2023-03-13T01:59:41.854Z,85.64
2023-03-13T02:00:44.006Z,86.32
2023-03-13T02:01:47.972Z,88.75
2023-03-13T02:02:52.372Z,88.05
2023-03-13T02:03:58.052Z,86.67
2023-03-13T02:05:03.877Z,90.19
2023-03-13T02:06:06.497Z,88.54
2023-03-13T02:07:12.184Z,88.90
2023-03-13T02:08:19.169Z,86.55
2023-03-13T02:09:23.257Z,88.75
2023-03-13T02:10:25.490Z,87.57
2023-03-13T02:11:32.100Z,88.84
2023-03-13T02:12:35.832Z,89.22
2023-03-13T02:13:37.413Z,90.73
2023-03-13T02:14:42.388Z,86.98
2023-03-13T02:15:44.943Z,88.70
2023-03-13T02:16:48.900Z,86.25
2023-03-13T02:17:50.852Z,87.01
2023-03-13T02:18:53.114Z,86.70
2023-03-13T02:19:54.755Z,86.83
2023-03-13T02:21:04.863Z,85.50
2023-03-13T02:22:09.264Z,84.61
2023-03-13T02:23:25.237Z,85.51
2023-03-13T02:24:34.856Z,84.28
2023-03-13T02:25:46.643Z,83.46
2023-03-13T02:26:50.649Z,84.55
2023-03-13T02:27:58.911Z,84.42
2023-03-13T02:29:00.881Z,83.71
2023-03-13T02:30:04.271Z,84.66
2023-03-13T02:31:06.840Z,83.59
2023-03-13T02:32:09.376Z,84.24
2023-03-13T02:33:14.435Z,83.61
2023-03-13T02:34:19.228Z,84.78
2023-03-13T02:35:22.489Z,83.25
2023-03-13T02:36:24.272Z,83.56
2023-03-13T02:37:27.931Z,84.68
2023-03-13T02:38:31.831Z,83.93
2023-03-13T02:39:34.416Z,84.10
2023-03-13T02:40:42.458Z,84.17
2023-03-13T02:41:46.195Z,83.27
2023-03-13T02:42:49.223Z,83.91
2023-03-13T02:43:50.761Z,84.44
2023-03-13T02:44:52.642Z,85.47
2023-03-13T02:46:13.636Z,83.97
2023-03-13T02:47:23.198Z,84.94
2023-03-13T02:48:36.345Z,84.86
2023-03-13T02:49:38.760Z,83.78
2023-03-13T02:50:40.863Z,83.82
2023-03-13T02:51:43.667Z,83.86
2023-03-13T02:52:49.717Z,83.71
2023-03-13T02:53:54.478Z,83.62
2023-03-13T02:54:59.248Z,84.54
2023-03-13T02:56:01.631Z,82.73
2023-03-13T02:57:05.000Z,85.36
2023-03-13T02:58:07.314Z,83.04
2023-03-13T02:59:11.450Z,82.99
2023-03-13T03:00:17.613Z,82.71
2023-03-13T03:01:19.790Z,82.43
2023-03-13T03:02:22.708Z,81.61
2023-03-13T03:03:24.314Z,81.36
2023-03-13T03:04:26.464Z,81.75
2023-03-13T03:05:30.539Z,81.50
2023-03-13T03:06:33.181Z,81.51
2023-03-13T03:07:37.043Z,81.39
2023-03-13T03:08:43.733Z,81.89
2023-03-13T03:09:46.674Z,81.67
2023-03-13T03:10:53.039Z,81.20
2023-03-13T03:11:56.584Z,80.92
2023-03-13T03:13:00.575Z,82.50
2023-03-13T03:14:05.099Z,81.28
2023-03-13T03:15:11.891Z,81.03
2023-03-13T03:16:18.705Z,80.89
2023-03-13T03:17:20.496Z,81.30
2023-03-13T03:18:22.093Z,80.33
2023-03-13T03:19:23.621Z,80.71
2023-03-13T03:20:25.223Z,81.83
2023-03-13T03:21:27.162Z,80.73
2023-03-13T03:22:28.806Z,81.32
2023-03-13T03:23:30.384Z,81.26
2023-03-13T03:24:32.156Z,80.55
2023-03-13T03:25:33.686Z,81.58
2023-03-13T03:26:35.662Z,80.50
2023-03-13T03:27:40.520Z,79.80
2023-03-13T03:28:43.605Z,80.75
2023-03-13T03:29:47.703Z,80.58
2023-03-13T03:30:50.050Z,81.39
2023-03-13T03:31:51.718Z,81.25
2023-03-13T03:32:53.461Z,80.64
2023-03-13T03:33:57.501Z,80.01
2023-03-13T03:34:59.061Z,80.86
2023-03-13T03:36:07.160Z,81.29
2023-03-13T03:37:09.397Z,80.56
2023-03-13T03:38:11.117Z,80.80
2023-03-13T03:39:12.783Z,80.42
2023-03-13T03:40:16.286Z,79.61
2023-03-13T03:41:19.324Z,80.83
2023-03-13T03:42:20.898Z,79.35
2023-03-13T03:43:22.456Z,79.64
2023-03-13T03:44:24.442Z,81.58
2023-03-13T03:45:31.148Z,82.05
2023-03-13T03:46:32.799Z,80.27
2023-03-13T03:47:34.440Z,79.63
2023-03-13T03:48:36.189Z,80.52
2023-03-13T03:49:40.054Z,78.84
2023-03-13T03:50:43.184Z,79.39
2023-03-13T03:51:45.192Z,80.73
2023-03-13T03:52:47.194Z,80.00
2023-03-13T03:53:48.921Z,80.50
2023-03-13T03:54:50.610Z,81.98
2023-03-13T03:55:53.117Z,83.85
2023-03-13T03:56:54.921Z,82.14
2023-03-13T03:57:56.518Z,82.33
2023-03-13T03:59:17.347Z,82.83
2023-03-13T04:00:23.444Z,85.39
2023-03-13T04:01:28.081Z,84.70
2023-03-13T04:02:29.753Z,87.44
2023-03-13T04:03:31.576Z,86.21
2023-03-13T04:04:33.370Z,84.47
2023-03-13T04:05:47.016Z,83.19
2023-03-13T04:06:48.674Z,85.50
2023-03-13T04:07:50.408Z,83.41
2023-03-13T04:08:52.614Z,84.93
2023-03-13T04:09:57.525Z,83.66
2023-03-13T04:11:09.705Z,86.14
2023-03-13T04:12:15.672Z,85.63
2023-03-13T04:13:20.074Z,85.44
2023-03-13T04:14:21.802Z,84.66
2023-03-13T04:15:23.489Z,86.85
2023-03-13T04:16:25.247Z,85.61
2023-03-13T04:17:28.664Z,84.08
2023-03-13T04:18:30.222Z,85.17
2023-03-13T04:19:31.814Z,85.54
2023-03-13T04:20:33.599Z,86.15
2023-03-13T04:21:35.287Z,85.10
2023-03-13T04:22:42.564Z,84.41
2023-03-13T04:23:44.186Z,83.15
2023-03-13T04:24:47.576Z,83.46
2023-03-13T04:25:49.224Z,82.44
2023-03-13T04:26:50.798Z,82.20
2023-03-13T04:27:52.431Z,80.87
2023-03-13T04:28:56.504Z,79.99
2023-03-13T04:30:13.552Z,80.06
2023-03-13T04:31:27.008Z,78.83
2023-03-13T04:32:41.017Z,78.89
2023-03-13T04:33:54.373Z,78.21
2023-03-13T04:35:05.185Z,78.29
2023-03-13T04:36:17.272Z,78.43
2023-03-13T04:37:38.702Z,78.70
2023-03-13T04:39:01.060Z,77.99
2023-03-13T04:40:28.998Z,76.96
2023-03-13T04:41:39.983Z,76.87
2023-03-13T04:43:10.750Z,77.42
2023-03-13T04:44:25.828Z,76.17
2023-03-13T04:45:43.198Z,77.02
2023-03-13T04:47:10.782Z,76.81
2023-03-13T04:48:21.885Z,75.50
2023-03-13T04:49:33.501Z,76.27
2023-03-13T04:50:40.824Z,75.70
2023-03-13T04:51:48.476Z,75.44
2023-03-13T04:53:05.106Z,75.54
2023-03-13T04:54:17.170Z,74.96
2023-03-13T04:55:42.118Z,75.40
2023-03-13T04:57:04.139Z,74.80
2023-03-13T04:58:12.094Z,75.45
2023-03-13T04:59:39.988Z,74.61
2023-03-13T05:01:09.112Z,75.27
2023-03-13T05:02:36.941Z,75.52
2023-03-13T05:04:00.893Z,75.10
2023-03-13T05:05:14.223Z,75.10
2023-03-13T05:06:54.121Z,75.27
2023-03-13T05:08:14.421Z,77.06
2023-03-13T05:09:26.773Z,75.47
2023-03-13T05:10:47.803Z,75.98
2023-03-13T05:12:18.694Z,75.76
2023-03-13T05:13:45.160Z,75.02
2023-03-13T05:15:15.344Z,74.85
2023-03-13T05:16:39.022Z,75.30
2023-03-13T05:17:59.127Z,75.89
2023-03-13T05:19:07.413Z,74.69
2023-03-13T05:20:20.492Z,74.94
2023-03-13T05:21:42.344Z,74.39
2023-03-13T05:23:09.829Z,75.83
2023-03-13T05:24:20.517Z,74.47
2023-03-13T05:25:51.006Z,73.89
2023-03-13T05:27:12.864Z,73.64
2023-03-13T05:28:43.392Z,74.79
2023-03-13T05:30:04.021Z,74.74
2023-03-13T05:31:24.300Z,73.94
2023-03-13T05:32:37.309Z,75.59
2023-03-13T05:34:10.992Z,73.78
2023-03-13T05:35:35.601Z,75.86
2023-03-13T05:36:54.283Z,76.46
2023-03-13T05:38:14.158Z,74.35
2023-03-13T05:39:42.070Z,75.03
2023-03-13T05:41:06.190Z,75.39
2023-03-13T05:42:21.054Z,75.71
2023-03-13T05:43:36.054Z,75.17
2023-03-13T05:44:53.640Z,73.87
2023-03-13T05:46:09.365Z,74.46
2023-03-13T05:47:39.997Z,73.12
2023-03-13T05:48:59.657Z,73.30
2023-03-13T05:50:33.530Z,73.82
2023-03-13T05:51:59.828Z,74.46
2023-03-13T05:53:21.737Z,74.49
2023-03-13T05:54:43.554Z,73.67
2023-03-13T05:56:07.860Z,73.02
2023-03-13T05:57:26.223Z,73.42
2023-03-13T05:58:38.666Z,73.09
2023-03-13T05:59:43.124Z,74.09
2023-03-13T06:01:12.262Z,73.73
2023-03-13T06:02:32.489Z,73.07
2023-03-13T06:03:34.885Z,71.83
2023-03-13T06:04:36.684Z,71.42
2023-03-13T06:05:38.393Z,71.65
2023-03-13T06:06:47.150Z,70.95
2023-03-13T06:07:51.017Z,71.41
2023-03-13T06:08:53.451Z,69.93
2023-03-13T06:09:56.280Z,69.64
2023-03-13T06:11:00.645Z,69.03
2023-03-13T06:12:02.557Z,70.79
2023-03-13T06:13:18.625Z,70.18
2023-03-13T06:14:21.988Z,68.84
2023-03-13T06:15:44.003Z,68.83
2023-03-13T06:16:51.119Z,69.16
2023-03-13T06:17:53.035Z,69.38
2023-03-13T06:18:54.589Z,69.76
2023-03-13T06:19:56.241Z,68.09
2023-03-13T06:20:59.542Z,68.60
2023-03-13T06:22:01.135Z,69.24
2023-03-13T06:23:02.706Z,68.72
2023-03-13T06:24:04.600Z,69.32
2023-03-13T06:25:07.017Z,68.99
2023-03-13T06:26:08.529Z,68.72
2023-03-13T06:27:10.348Z,67.95
2023-03-13T06:28:11.885Z,68.81
2023-03-13T06:29:13.472Z,68.44
2023-03-13T06:30:18.100Z,68.25
2023-03-13T06:31:19.653Z,67.60
2023-03-13T06:32:21.408Z,66.98
2023-03-13T06:33:23.090Z,67.15
2023-03-13T06:34:24.902Z,66.99
2023-03-13T06:35:26.478Z,67.13
2023-03-13T06:36:28.341Z,67.46
2023-03-13T06:37:29.953Z,66.51
2023-03-13T06:38:31.757Z,66.93
2023-03-13T06:39:34.055Z,66.92
2023-03-13T06:40:36.041Z,66.56
2023-03-13T06:41:37.741Z,66.50
2023-03-13T06:42:39.341Z,66.06
2023-03-13T06:43:41.043Z,66.64
2023-03-13T06:44:42.687Z,66.15
2023-03-13T06:45:44.376Z,66.37
2023-03-13T06:46:45.970Z,65.75
2023-03-13T06:47:47.764Z,66.63
2023-03-13T06:48:50.094Z,65.56
2023-03-13T06:49:51.780Z,66.17
2023-03-13T06:50:54.810Z,67.12
2023-03-13T06:51:59.383Z,66.99
2023-03-13T06:53:00.941Z,65.69
2023-03-13T06:54:03.394Z,65.85
2023-03-13T06:55:05.135Z,66.03
2023-03-13T06:56:07.392Z,66.90
2023-03-13T06:57:09.031Z,67.29
2023-03-13T06:58:21.531Z,66.66
2023-03-13T06:59:30.678Z,66.78
2023-03-13T07:00:32.435Z,66.93
2023-03-13T07:01:34.254Z,66.40
2023-03-13T07:02:35.818Z,67.17
2023-03-13T07:03:38.161Z,66.75
2023-03-13T07:04:39.783Z,69.04
2023-03-13T07:05:41.418Z,66.49
2023-03-13T07:06:43.374Z,67.06
2023-03-13T07:07:45.030Z,66.30
2023-03-13T07:08:47.039Z,67.99
2023-03-13T07:09:48.969Z,66.20
2023-03-13T07:10:52.349Z,66.51
2023-03-13T07:11:53.959Z,66.00
2023-03-13T07:12:55.949Z,66.14
2023-03-13T07:14:10.077Z,66.34
2023-03-13T07:15:17.178Z,66.65
2023-03-13T07:16:18.799Z,65.56
2023-03-13T07:17:20.464Z,66.01
2023-03-13T07:18:23.297Z,65.43
2023-03-13T07:19:26.642Z,66.31
2023-03-13T07:20:28.387Z,64.72
2023-03-13T07:21:30.029Z,66.02
2023-03-13T07:22:31.598Z,67.02
2023-03-13T07:23:34.771Z,66.03
2023-03-13T07:24:36.481Z,65.77
2023-03-13T07:25:38.106Z,65.81
2023-03-13T07:26:40.342Z,65.95
2023-03-13T07:27:42.849Z,66.17
2023-03-13T07:28:44.518Z,65.47
2023-03-13T07:29:46.114Z,64.48
2023-03-13T07:30:47.683Z,65.32
2023-03-13T07:31:49.454Z,65.33
2023-03-13T07:32:51.194Z,64.52
2023-03-13T07:33:56.339Z,64.77
2023-03-13T07:34:58.081Z,66.11
2023-03-13T07:36:00.017Z,64.98
2023-03-13T07:37:01.656Z,65.13
2023-03-13T07:38:03.273Z,65.06
2023-03-13T07:39:04.847Z,66.14
2023-03-13T07:40:06.976Z,66.76
2023-03-13T07:41:11.668Z,66.81
2023-03-13T07:42:13.341Z,67.25
2023-03-13T07:43:16.418Z,67.87
2023-03-13T07:44:18.395Z,68.75
2023-03-13T07:45:19.947Z,68.64
2023-03-13T07:46:21.758Z,70.00
2023-03-13T07:47:23.432Z,69.47
2023-03-13T07:48:28.547Z,70.49
2023-03-13T07:49:30.176Z,70.62
2023-03-13T07:50:31.763Z,71.36
2023-03-13T07:51:43.559Z,72.58
2023-03-13T07:52:45.741Z,73.24
2023-03-13T07:53:47.806Z,71.81
2023-03-13T07:54:49.372Z,71.91
2023-03-13T07:56:00.031Z,70.83
2023-03-13T07:57:03.026Z,71.30
2023-03-13T07:58:04.683Z,70.45
2023-03-13T07:59:06.940Z,69.49
2023-03-13T08:00:15.205Z,69.86
2023-03-13T08:01:24.307Z,66.92
2023-03-13T08:02:27.437Z,66.71
2023-03-13T08:03:30.227Z,66.10
2023-03-13T08:04:31.933Z,64.44
2023-03-13T08:05:33.563Z,64.86
2023-03-13T08:06:39.758Z,64.81
2023-03-13T08:07:43.183Z,64.07
2023-03-13T08:08:45.524Z,64.63
2023-03-13T08:09:47.539Z,65.24
2023-03-13T08:10:49.163Z,65.34
2023-03-13T08:11:50.770Z,65.71
2023-03-13T08:12:52.347Z,66.13
2023-03-13T08:13:54.689Z,66.07
2023-03-13T08:14:57.060Z,66.13
2023-03-13T08:16:02.030Z,66.06
2023-03-13T08:17:03.782Z,66.36
2023-03-13T08:18:05.514Z,66.69
2023-03-13T08:19:07.141Z,65.33
2023-03-13T08:20:12.180Z,63.82
2023-03-13T08:21:16.406Z,62.13
2023-03-13T08:22:18.036Z,59.52
2023-03-13T08:23:19.561Z,58.61
2023-03-13T08:24:21.125Z,57.90
2023-03-13T08:25:22.848Z,55.86
2023-03-13T08:26:26.685Z,54.64
2023-03-13T08:27:29.972Z,54.62
2023-03-13T08:28:31.688Z,55.50
2023-03-13T08:29:33.304Z,53.45
2023-03-13T08:30:34.998Z,53.91
2023-03-13T08:31:42.919Z,54.91
2023-03-13T08:32:44.597Z,56.16
2023-03-13T08:33:47.220Z,56.78
2023-03-13T08:34:48.769Z,57.60
2023-03-13T08:35:50.452Z,58.61
2023-03-13T08:36:52.887Z,59.30
2023-03-13T08:37:54.386Z,60.69
2023-03-13T08:39:00.892Z,61.22
2023-03-13T08:40:03.419Z,61.51
2023-03-13T08:41:05.072Z,62.46
2023-03-13T08:42:08.574Z,62.24
2023-03-13T08:43:10.146Z,61.79
2023-03-13T08:44:13.984Z,61.83
2023-03-13T08:45:15.612Z,63.08
2023-03-13T08:46:19.267Z,62.08
2023-03-13T08:47:21.332Z,59.60
2023-03-13T08:48:22.992Z,59.96
2023-03-13T08:49:24.692Z,58.87
2023-03-13T08:50:26.287Z,57.13
2023-03-13T08:51:28.733Z,55.90
2023-03-13T08:52:30.248Z,54.66
2023-03-13T08:53:33.000Z,53.29
2023-03-13T08:54:34.730Z,51.59
2023-03-13T08:55:36.313Z,50.70
2023-03-13T08:56:37.978Z,49.32
2023-03-13T08:57:39.537Z,49.90
2023-03-13T08:58:41.309Z,51.13
2023-03-13T08:59:42.851Z,50.46
2023-03-13T09:00:44.477Z,51.82
2023-03-13T09:01:46.060Z,52.92
2023-03-13T09:02:47.728Z,52.42
2023-03-13T09:03:49.647Z,52.57
2023-03-13T09:04:51.302Z,52.16
2023-03-13T09:05:56.414Z,51.54
2023-03-13T09:06:58.490Z,52.09
2023-03-13T09:08:00.177Z,51.75
2023-03-13T09:09:02.843Z,50.45
2023-03-13T09:10:04.789Z,48.74
2023-03-13T09:11:08.891Z,47.24
2023-03-13T09:12:24.589Z,46.52
2023-03-13T09:13:33.590Z,45.07
2023-03-13T09:14:36.698Z,44.58
2023-03-13T09:15:38.660Z,44.82
2023-03-13T09:16:40.470Z,43.53
2023-03-13T09:17:42.063Z,44.11
2023-03-13T09:18:44.536Z,42.35
2023-03-13T09:19:59.337Z,42.34
2023-03-13T09:21:02.272Z,43.08
2023-03-13T09:22:03.823Z,42.60
2023-03-13T09:23:05.413Z,44.12
2023-03-13T09:24:07.385Z,45.71
2023-03-13T09:25:09.311Z,43.89
2023-03-13T09:26:12.268Z,43.52
2023-03-13T09:27:13.834Z,41.83
2023-03-13T09:28:15.700Z,41.93
2023-03-13T09:29:17.377Z,41.76
2023-03-13T09:30:19.113Z,42.20
2023-03-13T09:31:25.989Z,42.20
2023-03-13T09:32:27.748Z,43.21
2023-03-13T09:33:29.868Z,43.94
2023-03-13T09:34:32.033Z,46.11
2023-03-13T09:35:33.711Z,47.40
2023-03-13T09:36:35.252Z,47.41
2023-03-13T09:37:36.862Z,47.68
2023-03-13T09:38:38.936Z,47.59
2023-03-13T09:39:40.540Z,48.88
2023-03-13T09:40:56.552Z,47.83
2023-03-13T09:42:18.256Z,48.24
2023-03-13T09:43:28.363Z,47.44
2023-03-13T09:44:35.670Z,47.88
2023-03-13T09:45:41.243Z,48.33
2023-03-13T09:47:08.112Z,49.29
2023-03-13T09:48:23.786Z,48.70
2023-03-13T09:49:35.345Z,49.70
2023-03-13T09:50:40.645Z,48.71
2023-03-13T09:51:44.612Z,48.65
2023-03-13T09:52:49.418Z,47.12
2023-03-13T09:53:55.738Z,46.50
2023-03-13T09:55:01.631Z,46.36
2023-03-13T09:56:05.539Z,47.21
2023-03-13T09:57:16.224Z,47.41
2023-03-13T09:58:21.772Z,46.73
2023-03-13T09:59:52.681Z,44.43
2023-03-13T10:00:58.651Z,44.84
2023-03-13T10:02:01.025Z,44.56
2023-03-13T10:03:08.217Z,44.59
2023-03-13T10:04:15.853Z,44.75
2023-03-13T10:05:20.948Z,44.46
2023-03-13T10:06:25.165Z,46.48
2023-03-13T10:07:26.788Z,45.86
2023-03-13T10:08:31.862Z,46.03
2023-03-13T10:09:33.788Z,45.44
2023-03-13T10:11:01.193Z,46.48
2023-03-13T10:12:21.872Z,47.39
2023-03-13T10:13:33.439Z,47.41
2023-03-13T10:14:42.761Z,47.88
2023-03-13T10:15:52.280Z,47.38
2023-03-13T10:17:04.804Z,48.38
2023-03-13T10:18:14.565Z,48.14
2023-03-13T10:19:18.292Z,46.20
2023-03-13T10:20:40.532Z,46.43
2023-03-13T10:21:43.432Z,45.43
2023-03-13T10:22:48.932Z,46.54
2023-03-13T10:24:27.789Z,43.85
2023-03-13T10:25:32.488Z,42.80
2023-03-13T10:26:36.023Z,42.14
2023-03-13T10:27:45.692Z,41.53
2023-03-13T10:28:48.209Z,41.41
2023-03-13T10:29:49.900Z,41.87
2023-03-13T10:31:14.601Z,40.96
2023-03-13T10:32:17.601Z,42.48
2023-03-13T10:33:23.168Z,42.27
2023-03-13T10:34:46.155Z,42.37
2023-03-13T10:36:04.085Z,44.47
2023-03-13T10:37:07.106Z,44.22
2023-03-13T10:38:11.426Z,45.42
2023-03-13T10:39:19.106Z,45.88
2023-03-13T10:40:25.132Z,45.82
2023-03-13T10:41:30.907Z,43.62
2023-03-13T10:42:35.189Z,42.40
2023-03-13T10:43:50.517Z,41.56
2023-03-13T10:45:00.190Z,41.42
2023-03-13T10:46:03.881Z,40.55
2023-03-13T10:47:06.431Z,41.05
2023-03-13T10:48:20.243Z,40.77
2023-03-13T10:49:23.889Z,39.76
2023-03-13T10:50:27.351Z,39.22
2023-03-13T10:51:38.531Z,39.04
2023-03-13T10:52:46.163Z,39.98
2023-03-13T10:53:47.746Z,38.75
2023-03-13T10:54:49.372Z,39.47
2023-03-13T10:56:14.853Z,39.28
2023-03-13T10:57:21.556Z,38.03
2023-03-13T10:58:48.680Z,37.86
2023-03-13T10:59:51.031Z,38.06
2023-03-13T11:00:52.540Z,38.88
2023-03-13T11:01:59.162Z,38.06
2023-03-13T11:03:02.691Z,37.24
2023-03-13T11:04:33.547Z,38.71
2023-03-13T11:05:43.193Z,38.15
2023-03-13T11:06:50.648Z,38.38
2023-03-13T11:07:53.061Z,38.91
2023-03-13T11:09:15.604Z,38.72
2023-03-13T11:10:19.260Z,38.07
2023-03-13T11:11:21.032Z,38.20
2023-03-13T11:12:22.724Z,37.52
2023-03-13T11:13:41.045Z,37.50
2023-03-13T11:14:45.118Z,37.69
2023-03-13T11:15:53.328Z,38.60
2023-03-13T11:17:19.393Z,38.35
2023-03-13T11:18:40.494Z,39.35
2023-03-13T11:19:58.642Z,39.32
2023-03-13T11:21:17.350Z,39.76
2023-03-13T11:22:30.898Z,40.41
2023-03-13T11:23:41.184Z,39.82
2023-03-13T11:24:42.692Z,39.66
2023-03-13T11:25:53.924Z,38.93
2023-03-13T11:27:05.499Z,37.97
2023-03-13T11:28:38.453Z,38.26
2023-03-13T11:29:48.264Z,36.91
2023-03-13T11:30:59.258Z,39.32
2023-03-13T11:32:06.210Z,40.29
2023-03-13T11:33:33.838Z,40.37
2023-03-13T11:34:46.273Z,41.69
2023-03-13T11:36:00.215Z,41.34
2023-03-13T11:37:15.514Z,39.78
2023-03-13T11:38:32.646Z,39.42
2023-03-13T11:39:52.467Z,40.25
2023-03-13T11:41:04.896Z,39.93
2023-03-13T11:42:33.405Z,40.68
2023-03-13T11:43:58.265Z,42.80
2023-03-13T11:45:05.830Z,42.72
2023-03-13T11:46:26.097Z,43.44
2023-03-13T11:47:27.768Z,43.82
2023-03-13T11:49:10.737Z,44.33
2023-03-13T11:50:20.895Z,43.94
2023-03-13T11:52:11.898Z,43.84
2023-03-13T11:53:31.875Z,45.14
2023-03-13T11:54:47.138Z,44.99
2023-03-13T11:56:05.877Z,43.90
2023-03-13T11:57:13.411Z,44.30
2023-03-13T11:58:43.790Z,43.62
2023-03-13T11:59:54.491Z,44.27
2023-03-13T12:01:01.663Z,44.82
2023-03-13T12:02:12.522Z,45.16
2023-03-13T12:03:42.507Z,46.05
2023-03-13T12:05:09.492Z,44.48
2023-03-13T12:06:31.816Z,44.92
2023-03-13T12:07:40.932Z,46.38
2023-03-13T12:08:49.257Z,45.20
2023-03-13T12:10:12.098Z,44.98
2023-03-13T12:11:17.628Z,45.42
2023-03-13T12:12:28.139Z,44.54
2023-03-13T12:13:33.682Z,44.56
2023-03-13T12:14:39.556Z,46.85
2023-03-13T12:15:43.884Z,46.07
2023-03-13T12:17:16.124Z,45.60
2023-03-13T12:18:36.642Z,46.58
2023-03-13T12:19:58.387Z,46.12
2023-03-13T12:21:05.898Z,46.19
2023-03-13T12:22:14.685Z,44.41
2023-03-13T12:23:17.130Z,44.74
2023-03-13T12:24:41.401Z,45.91
2023-03-13T12:25:49.228Z,45.41
2023-03-13T12:27:18.278Z,46.01
2023-03-13T12:28:25.750Z,44.97
2023-03-13T12:29:30.852Z,45.14
2023-03-13T12:31:17.214Z,45.93
2023-03-13T12:32:29.858Z,46.95
2023-03-13T12:33:36.769Z,46.82
2023-03-13T12:34:47.520Z,46.37
2023-03-13T12:35:59.746Z,45.72
2023-03-13T12:37:20.213Z,45.58
2023-03-13T12:38:56.690Z,45.64
2023-03-13T12:40:20.951Z,46.23
2023-03-13T12:41:31.459Z,45.94
2023-03-13T12:42:53.331Z,45.59
2023-03-13T12:44:08.318Z,45.95
2023-03-13T12:45:18.595Z,47.22
2023-03-13T12:46:20.316Z,44.91
2023-03-13T12:47:38.427Z,45.20
2023-03-13T12:49:07.525Z,46.12
2023-03-13T12:50:22.907Z,45.53
2023-03-13T12:52:05.427Z,48.00
2023-03-13T12:53:37.540Z,47.10
2023-03-13T12:55:00.484Z,46.57
2023-03-13T12:56:20.621Z,48.15
2023-03-13T12:57:37.639Z,46.48
2023-03-13T12:58:49.420Z,47.85
2023-03-13T12:59:56.826Z,47.26
2023-03-13T13:01:03.005Z,46.18
2023-03-13T13:02:15.769Z,46.64
2023-03-13T13:03:47.346Z,46.14
2023-03-13T13:04:50.972Z,47.42
2023-03-13T13:06:11.774Z,46.57
2023-03-13T13:07:29.863Z,47.23
2023-03-13T13:08:37.991Z,46.64
2023-03-13T13:10:19.482Z,47.81
2023-03-13T13:11:39.458Z,46.31
2023-03-13T13:12:42.984Z,46.40
2023-03-13T13:13:44.622Z,45.75
2023-03-13T13:14:49.383Z,46.59
2023-03-13T13:16:01.785Z,47.06
2023-03-13T13:17:16.789Z,47.77
2023-03-13T13:18:27.085Z,47.23
2023-03-13T13:19:28.724Z,47.37
2023-03-13T13:20:42.029Z,47.29
2023-03-13T13:21:43.697Z,48.76
2023-03-13T13:22:46.891Z,47.90
2023-03-13T13:23:50.595Z,46.59
2023-03-13T13:24:54.624Z,47.44
2023-03-13T13:26:26.671Z,47.69
2023-03-13T13:27:28.354Z,48.03
2023-03-13T13:28:35.005Z,48.00
2023-03-13T13:29:36.606Z,48.96
2023-03-13T13:30:38.553Z,48.80
2023-03-13T13:31:50.751Z,46.79
2023-03-13T13:32:55.695Z,46.97
2023-03-13T13:33:57.316Z,47.49
2023-03-13T13:35:30.923Z,47.38
2023-03-13T13:36:41.071Z,47.22
2023-03-13T13:37:43.249Z,47.54
2023-03-13T13:38:44.972Z,47.77
2023-03-13T13:39:52.970Z,48.23
2023-03-13T13:41:09.683Z,47.35
2023-03-13T13:42:29.850Z,47.68
2023-03-13T13:43:36.069Z,48.86
2023-03-13T13:44:57.899Z,48.29
2023-03-13T13:46:06.589Z,48.43
2023-03-13T13:47:23.520Z,46.91
2023-03-13T13:48:34.026Z,47.57
2023-03-13T13:49:36.830Z,48.90
2023-03-13T13:50:38.518Z,47.71
2023-03-13T13:51:41.098Z,48.57
2023-03-13T13:52:44.180Z,48.26
2023-03-13T13:53:54.329Z,48.25
2023-03-13T13:54:57.942Z,47.15
2023-03-13T13:55:59.566Z,47.42
2023-03-13T13:57:06.498Z,47.71
2023-03-13T13:58:17.664Z,47.69
2023-03-13T13:59:22.032Z,47.64
2023-03-13T14:00:27.801Z,47.78
2023-03-13T14:01:29.855Z,47.91
2023-03-13T14:02:50.327Z,47.51
2023-03-13T14:03:52.130Z,47.83
2023-03-13T14:05:00.932Z,47.49
2023-03-13T14:06:15.620Z,47.40
2023-03-13T14:07:24.984Z,46.53
2023-03-13T14:08:30.632Z,46.36
2023-03-13T14:09:44.536Z,47.32
2023-03-13T14:10:51.440Z,47.11
2023-03-13T14:11:53.299Z,45.80
2023-03-13T14:12:57.497Z,46.29
2023-03-13T14:14:21.583Z,46.79
2023-03-13T14:15:30.462Z,47.30
2023-03-13T14:16:32.326Z,45.80
2023-03-13T14:17:52.191Z,47.34
2023-03-13T14:18:53.966Z,47.18
2023-03-13T14:19:55.521Z,46.59
2023-03-13T14:21:02.659Z,46.03
2023-03-13T14:22:06.937Z,47.23
2023-03-13T14:23:10.870Z,46.85
2023-03-13T14:24:15.813Z,47.35
2023-03-13T14:25:17.493Z,47.62
2023-03-13T14:26:27.523Z,47.84
2023-03-13T14:27:29.192Z,48.08
2023-03-13T14:28:30.901Z,47.97
2023-03-13T14:29:32.577Z,47.86
2023-03-13T14:30:34.295Z,47.62